sensor_id;sensor_type;location;lat;lon;timestamp;temperature;humidity
19972;DHT22;10147;16.402;102.848;2023-10-13T00:02:38;26.30;99.90
19972;DHT22;10147;16.402;102.848;2023-10-13T00:05:09;26.30;99.90
19972;DHT22;10147;16.402;102.848;2023-10-13T00:07:39;26.30;99.90
19972;DHT22;10147;16.402;102.848;2023-10-13T00:10:10;26.30;99.90
19972;DHT22;10147;16.402;102.848;2023-10-13T00:12:41;26.40;99.90
19972;DHT22;10147;16.402;102.848;2023-10-13T00:15:19;26.40;99.90
19972;DHT22;10147;16.402;102.848;2023-10-13T00:17:58;26.50;99.90
19972;DHT22;10147;16.402;102.848;2023-10-13T00:20:28;26.50;99.90
19972;DHT22;10147;16.402;102.848;2023-10-13T00:23:05;26.50;99.90
19972;DHT22;10147;16.402;102.848;2023-10-13T00:25:36;26.50;99.90
19972;DHT22;10147;16.402;102.848;2023-10-13T00:28:19;26.50;99.90
19972;DHT22;10147;16.402;102.848;2023-10-13T00:30:54;26.50;99.90
19972;DHT22;10147;16.402;102.848;2023-10-13T00:33:31;26.60;99.90
19972;DHT22;10147;16.402;102.848;2023-10-13T00:36:02;26.60;99.90
19972;DHT22;10147;16.402;102.848;2023-10-13T00:38:35;26.70;99.90
19972;DHT22;10147;16.402;102.848;2023-10-13T00:41:06;26.70;99.90
19972;DHT22;10147;16.402;102.848;2023-10-13T00:43:47;26.80;99.90
19972;DHT22;10147;16.402;102.848;2023-10-13T00:46:39;26.80;99.90
19972;DHT22;10147;16.402;102.848;2023-10-13T00:49:14;26.80;99.90
19972;DHT22;10147;16.402;102.848;2023-10-13T00:51:45;26.90;99.90
19972;DHT22;10147;16.402;102.848;2023-10-13T00:54:19;27.00;99.90
19972;DHT22;10147;16.402;102.848;2023-10-13T00:56:56;27.00;99.90
19972;DHT22;10147;16.402;102.848;2023-10-13T00:59:34;27.10;99.90
19972;DHT22;10147;16.402;102.848;2023-10-13T01:02:05;27.20;99.90
19972;DHT22;10147;16.402;102.848;2023-10-13T01:04:56;27.30;99.90
19972;DHT22;10147;16.402;102.848;2023-10-13T01:07:26;27.20;99.90
19972;DHT22;10147;16.402;102.848;2023-10-13T01:09:58;27.20;99.90
19972;DHT22;10147;16.402;102.848;2023-10-13T01:12:28;27.10;99.90
19972;DHT22;10147;16.402;102.848;2023-10-13T01:15:01;27.20;99.90
19972;DHT22;10147;16.402;102.848;2023-10-13T01:17:38;27.30;99.90
19972;DHT22;10147;16.402;102.848;2023-10-13T01:20:08;27.30;99.90
19972;DHT22;10147;16.402;102.848;2023-10-13T01:22:40;27.40;99.90
19972;DHT22;10147;16.402;102.848;2023-10-13T01:25:10;27.50;99.90
19972;DHT22;10147;16.402;102.848;2023-10-13T01:27:44;27.60;99.90
19972;DHT22;10147;16.402;102.848;2023-10-13T01:30:18;27.70;99.90
19972;DHT22;10147;16.402;102.848;2023-10-13T01:32:56;27.80;99.90
19972;DHT22;10147;16.402;102.848;2023-10-13T01:35:30;27.70;99.90
19972;DHT22;10147;16.402;102.848;2023-10-13T01:38:11;27.80;99.90
19972;DHT22;10147;16.402;102.848;2023-10-13T01:40:41;27.80;99.90
19972;DHT22;10147;16.402;102.848;2023-10-13T01:43:12;27.80;99.90
19972;DHT22;10147;16.402;102.848;2023-10-13T01:45:45;27.90;99.90
19972;DHT22;10147;16.402;102.848;2023-10-13T01:48:19;27.90;99.90
19972;DHT22;10147;16.402;102.848;2023-10-13T01:50:50;27.90;99.90
19972;DHT22;10147;16.402;102.848;2023-10-13T01:53:25;28.00;99.90
19972;DHT22;10147;16.402;102.848;2023-10-13T01:55:58;28.10;99.90
19972;DHT22;10147;16.402;102.848;2023-10-13T01:58:27;28.00;99.90
19972;DHT22;10147;16.402;102.848;2023-10-13T02:00:59;28.10;99.90
19972;DHT22;10147;16.402;102.848;2023-10-13T02:03:29;28.20;99.90
19972;DHT22;10147;16.402;102.848;2023-10-13T02:05:59;28.10;99.90
19972;DHT22;10147;16.402;102.848;2023-10-13T02:08:34;28.20;99.90
19972;DHT22;10147;16.402;102.848;2023-10-13T02:11:09;28.20;99.90
19972;DHT22;10147;16.402;102.848;2023-10-13T02:13:39;28.30;99.90
19972;DHT22;10147;16.402;102.848;2023-10-13T02:16:18;28.30;99.90
19972;DHT22;10147;16.402;102.848;2023-10-13T02:18:52;28.30;99.90
19972;DHT22;10147;16.402;102.848;2023-10-13T02:21:22;28.30;99.90
19972;DHT22;10147;16.402;102.848;2023-10-13T02:24:01;28.40;99.90
19972;DHT22;10147;16.402;102.848;2023-10-13T02:26:33;28.50;99.90
19972;DHT22;10147;16.402;102.848;2023-10-13T02:29:09;28.60;99.90
19972;DHT22;10147;16.402;102.848;2023-10-13T02:31:47;28.70;99.90
19972;DHT22;10147;16.402;102.848;2023-10-13T02:34:25;28.80;99.90
19972;DHT22;10147;16.402;102.848;2023-10-13T02:36:55;28.80;99.90
19972;DHT22;10147;16.402;102.848;2023-10-13T02:39:25;28.80;99.90
19972;DHT22;10147;16.402;102.848;2023-10-13T02:41:56;28.70;99.90
19972;DHT22;10147;16.402;102.848;2023-10-13T02:44:26;28.70;99.90
19972;DHT22;10147;16.402;102.848;2023-10-13T02:46:57;28.80;99.90
19972;DHT22;10147;16.402;102.848;2023-10-13T02:49:29;28.70;99.90
19972;DHT22;10147;16.402;102.848;2023-10-13T02:52:03;28.60;99.90
19972;DHT22;10147;16.402;102.848;2023-10-13T02:54:38;28.70;99.90
19972;DHT22;10147;16.402;102.848;2023-10-13T02:57:21;28.80;99.90
19972;DHT22;10147;16.402;102.848;2023-10-13T02:59:53;28.80;99.90
19972;DHT22;10147;16.402;102.848;2023-10-13T03:02:30;28.80;99.90
19972;DHT22;10147;16.402;102.848;2023-10-13T03:05:01;28.90;99.90
19972;DHT22;10147;16.402;102.848;2023-10-13T03:07:47;29.00;99.90
19972;DHT22;10147;16.402;102.848;2023-10-13T03:10:20;29.30;99.90
19972;DHT22;10147;16.402;102.848;2023-10-13T03:12:51;29.30;99.90
19972;DHT22;10147;16.402;102.848;2023-10-13T03:15:22;29.40;99.90
19972;DHT22;10147;16.402;102.848;2023-10-13T03:18:02;29.40;99.90
19972;DHT22;10147;16.402;102.848;2023-10-13T03:20:32;29.70;99.90
19972;DHT22;10147;16.402;102.848;2023-10-13T03:23:05;29.80;99.90
19972;DHT22;10147;16.402;102.848;2023-10-13T03:25:41;29.90;99.90
19972;DHT22;10147;16.402;102.848;2023-10-13T03:28:13;29.90;99.90
19972;DHT22;10147;16.402;102.848;2023-10-13T03:30:46;29.80;99.90
19972;DHT22;10147;16.402;102.848;2023-10-13T03:33:22;29.90;99.90
19972;DHT22;10147;16.402;102.848;2023-10-13T03:35:55;30.00;99.90
19972;DHT22;10147;16.402;102.848;2023-10-13T03:38:34;29.90;99.90
19972;DHT22;10147;16.402;102.848;2023-10-13T03:41:06;29.90;99.90
19972;DHT22;10147;16.402;102.848;2023-10-13T03:43:49;29.90;99.90
19972;DHT22;10147;16.402;102.848;2023-10-13T03:46:22;29.90;99.90
19972;DHT22;10147;16.402;102.848;2023-10-13T03:48:52;30.00;99.90
19972;DHT22;10147;16.402;102.848;2023-10-13T03:51:24;29.90;99.90
19972;DHT22;10147;16.402;102.848;2023-10-13T03:54:00;30.00;99.90
19972;DHT22;10147;16.402;102.848;2023-10-13T03:56:36;30.20;99.90
19972;DHT22;10147;16.402;102.848;2023-10-13T03:59:10;30.30;99.90
19972;DHT22;10147;16.402;102.848;2023-10-13T04:01:50;30.40;99.90
19972;DHT22;10147;16.402;102.848;2023-10-13T04:04:38;30.30;99.90
19972;DHT22;10147;16.402;102.848;2023-10-13T04:07:18;30.40;99.90
19972;DHT22;10147;16.402;102.848;2023-10-13T04:10:08;30.50;99.90
19972;DHT22;10147;16.402;102.848;2023-10-13T04:12:57;30.60;99.90
19972;DHT22;10147;16.402;102.848;2023-10-13T04:15:47;30.60;99.90
19972;DHT22;10147;16.402;102.848;2023-10-13T04:18:37;30.40;99.90
19972;DHT22;10147;16.402;102.848;2023-10-13T04:21:27;30.50;99.90
19972;DHT22;10147;16.402;102.848;2023-10-13T04:24:17;30.60;99.90
19972;DHT22;10147;16.402;102.848;2023-10-13T04:27:07;30.80;99.90
19972;DHT22;10147;16.402;102.848;2023-10-13T04:29:57;31.00;99.90
19972;DHT22;10147;16.402;102.848;2023-10-13T04:32:45;31.20;99.90
19972;DHT22;10147;16.402;102.848;2023-10-13T04:35:35;31.10;99.90
19972;DHT22;10147;16.402;102.848;2023-10-13T04:38:16;31.10;99.90
19972;DHT22;10147;16.402;102.848;2023-10-13T04:40:50;31.10;99.90
19972;DHT22;10147;16.402;102.848;2023-10-13T04:43:30;31.30;99.90
19972;DHT22;10147;16.402;102.848;2023-10-13T04:46:20;31.60;99.90
19972;DHT22;10147;16.402;102.848;2023-10-13T04:49:10;31.80;99.90
19972;DHT22;10147;16.402;102.848;2023-10-13T04:51:59;31.80;99.90
19972;DHT22;10147;16.402;102.848;2023-10-13T04:54:30;31.60;99.90
19972;DHT22;10147;16.402;102.848;2023-10-13T04:57:19;31.70;99.90
19972;DHT22;10147;16.402;102.848;2023-10-13T04:59:53;31.40;99.90
19972;DHT22;10147;16.402;102.848;2023-10-13T05:02:45;31.40;99.90
19972;DHT22;10147;16.402;102.848;2023-10-13T05:05:35;31.30;99.90
19972;DHT22;10147;16.402;102.848;2023-10-13T05:08:25;31.20;99.90
19972;DHT22;10147;16.402;102.848;2023-10-13T05:11:14;31.20;99.90
19972;DHT22;10147;16.402;102.848;2023-10-13T05:14:04;31.30;99.90
19972;DHT22;10147;16.402;102.848;2023-10-13T05:16:53;31.20;99.90
19972;DHT22;10147;16.402;102.848;2023-10-13T05:19:43;31.10;99.90
19972;DHT22;10147;16.402;102.848;2023-10-13T05:22:33;31.40;99.90
19972;DHT22;10147;16.402;102.848;2023-10-13T05:25:23;31.60;99.90
19972;DHT22;10147;16.402;102.848;2023-10-13T05:28:13;31.60;99.90
19972;DHT22;10147;16.402;102.848;2023-10-13T05:31:04;31.70;99.90
19972;DHT22;10147;16.402;102.848;2023-10-13T05:33:53;31.60;99.90
19972;DHT22;10147;16.402;102.848;2023-10-13T05:36:43;31.60;99.90
19972;DHT22;10147;16.402;102.848;2023-10-13T05:39:33;31.80;99.90
19972;DHT22;10147;16.402;102.848;2023-10-13T05:42:22;32.00;99.90
19972;DHT22;10147;16.402;102.848;2023-10-13T05:45:12;31.90;99.90
19972;DHT22;10147;16.402;102.848;2023-10-13T05:48:02;31.80;99.90
19972;DHT22;10147;16.402;102.848;2023-10-13T05:50:41;31.90;99.90
19972;DHT22;10147;16.402;102.848;2023-10-13T05:53:31;31.60;99.90
19972;DHT22;10147;16.402;102.848;2023-10-13T05:56:23;31.60;99.90
19972;DHT22;10147;16.402;102.848;2023-10-13T05:59:13;31.80;99.90
19972;DHT22;10147;16.402;102.848;2023-10-13T06:02:02;32.00;99.90
19972;DHT22;10147;16.402;102.848;2023-10-13T06:04:52;32.50;99.90
19972;DHT22;10147;16.402;102.848;2023-10-13T06:07:42;32.80;99.90
19972;DHT22;10147;16.402;102.848;2023-10-13T06:10:31;33.10;99.90
19972;DHT22;10147;16.402;102.848;2023-10-13T06:13:21;33.30;99.90
19972;DHT22;10147;16.402;102.848;2023-10-13T06:16:16;33.30;99.90
19972;DHT22;10147;16.402;102.848;2023-10-13T06:19:06;32.70;99.90
19972;DHT22;10147;16.402;102.848;2023-10-13T06:21:55;32.50;99.90
19972;DHT22;10147;16.402;102.848;2023-10-13T06:24:45;32.20;99.90
19972;DHT22;10147;16.402;102.848;2023-10-13T06:27:35;31.80;99.90
19972;DHT22;10147;16.402;102.848;2023-10-13T06:30:25;31.70;99.90
19972;DHT22;10147;16.402;102.848;2023-10-13T06:32:55;31.70;99.90
19972;DHT22;10147;16.402;102.848;2023-10-13T06:35:25;31.60;99.90
19972;DHT22;10147;16.402;102.848;2023-10-13T06:37:55;31.40;99.90
19972;DHT22;10147;16.402;102.848;2023-10-13T06:40:30;31.20;99.90
19972;DHT22;10147;16.402;102.848;2023-10-13T06:43:03;31.10;99.90
19972;DHT22;10147;16.402;102.848;2023-10-13T06:45:46;31.10;99.90
19972;DHT22;10147;16.402;102.848;2023-10-13T06:48:26;30.80;99.90
19972;DHT22;10147;16.402;102.848;2023-10-13T06:50:56;30.60;99.90
19972;DHT22;10147;16.402;102.848;2023-10-13T06:53:33;30.60;99.90
19972;DHT22;10147;16.402;102.848;2023-10-13T06:56:07;30.50;99.90
19972;DHT22;10147;16.402;102.848;2023-10-13T06:58:38;30.50;99.90
19972;DHT22;10147;16.402;102.848;2023-10-13T07:01:13;30.30;99.90
19972;DHT22;10147;16.402;102.848;2023-10-13T07:03:48;30.30;99.90
19972;DHT22;10147;16.402;102.848;2023-10-13T07:06:22;30.20;99.90
19972;DHT22;10147;16.402;102.848;2023-10-13T07:08:55;30.30;99.90
19972;DHT22;10147;16.402;102.848;2023-10-13T07:11:27;30.20;99.90
19972;DHT22;10147;16.402;102.848;2023-10-13T07:14:04;30.20;99.90
19972;DHT22;10147;16.402;102.848;2023-10-13T07:16:54;30.30;99.90
19972;DHT22;10147;16.402;102.848;2023-10-13T07:19:29;30.30;99.90
19972;DHT22;10147;16.402;102.848;2023-10-13T07:22:01;30.20;99.90
19972;DHT22;10147;16.402;102.848;2023-10-13T07:24:51;30.20;99.90
19972;DHT22;10147;16.402;102.848;2023-10-13T07:27:22;30.20;99.90
19972;DHT22;10147;16.402;102.848;2023-10-13T07:29:55;30.50;99.90
19972;DHT22;10147;16.402;102.848;2023-10-13T07:32:26;30.50;99.90
19972;DHT22;10147;16.402;102.848;2023-10-13T07:34:57;30.60;99.90
19972;DHT22;10147;16.402;102.848;2023-10-13T07:37:27;30.70;99.90
19972;DHT22;10147;16.402;102.848;2023-10-13T07:40:03;30.60;99.90
19972;DHT22;10147;16.402;102.848;2023-10-13T07:42:54;30.70;99.90
19972;DHT22;10147;16.402;102.848;2023-10-13T07:45:33;30.60;99.90
19972;DHT22;10147;16.402;102.848;2023-10-13T07:48:09;30.50;99.90
19972;DHT22;10147;16.402;102.848;2023-10-13T07:50:42;30.50;99.90
19972;DHT22;10147;16.402;102.848;2023-10-13T07:53:14;30.30;99.90
19972;DHT22;10147;16.402;102.848;2023-10-13T07:55:53;30.30;99.90
19972;DHT22;10147;16.402;102.848;2023-10-13T07:58:28;30.20;99.90
19972;DHT22;10147;16.402;102.848;2023-10-13T08:01:01;30.40;99.90
19972;DHT22;10147;16.402;102.848;2023-10-13T08:03:37;30.70;99.90
19972;DHT22;10147;16.402;102.848;2023-10-13T08:06:17;30.70;99.90
19972;DHT22;10147;16.402;102.848;2023-10-13T08:08:49;30.60;99.90
19972;DHT22;10147;16.402;102.848;2023-10-13T08:11:38;30.50;99.90
19972;DHT22;10147;16.402;102.848;2023-10-13T08:14:09;30.60;99.90
19972;DHT22;10147;16.402;102.848;2023-10-13T08:17:07;30.60;99.90
19972;DHT22;10147;16.402;102.848;2023-10-13T08:19:41;30.60;99.90
19972;DHT22;10147;16.402;102.848;2023-10-13T08:22:15;30.30;99.90
19972;DHT22;10147;16.402;102.848;2023-10-13T08:25:03;30.40;99.90
19972;DHT22;10147;16.402;102.848;2023-10-13T08:28:21;30.50;99.90
19972;DHT22;10147;16.402;102.848;2023-10-13T08:31:25;30.50;99.90
19972;DHT22;10147;16.402;102.848;2023-10-13T08:33:56;30.60;99.90
19972;DHT22;10147;16.402;102.848;2023-10-13T08:36:36;30.60;99.90
19972;DHT22;10147;16.402;102.848;2023-10-13T08:39:07;30.60;99.90
19972;DHT22;10147;16.402;102.848;2023-10-13T08:41:59;30.70;99.90
19972;DHT22;10147;16.402;102.848;2023-10-13T08:44:50;30.70;99.90
19972;DHT22;10147;16.402;102.848;2023-10-13T08:47:23;30.60;99.90
19972;DHT22;10147;16.402;102.848;2023-10-13T08:49:58;30.60;99.90
19972;DHT22;10147;16.402;102.848;2023-10-13T08:52:40;30.50;99.90
19972;DHT22;10147;16.402;102.848;2023-10-13T08:55:19;30.50;99.90
19972;DHT22;10147;16.402;102.848;2023-10-13T08:58:09;30.50;99.90
19972;DHT22;10147;16.402;102.848;2023-10-13T09:00:46;30.50;99.90
19972;DHT22;10147;16.402;102.848;2023-10-13T09:03:27;30.50;99.90
19972;DHT22;10147;16.402;102.848;2023-10-13T09:06:18;30.50;99.90
19972;DHT22;10147;16.402;102.848;2023-10-13T09:08:49;30.40;99.90
19972;DHT22;10147;16.402;102.848;2023-10-13T09:11:39;30.30;99.90
19972;DHT22;10147;16.402;102.848;2023-10-13T09:14:28;30.40;99.90
19972;DHT22;10147;16.402;102.848;2023-10-13T09:17:06;30.40;99.90
19972;DHT22;10147;16.402;102.848;2023-10-13T09:19:56;30.30;99.90
19972;DHT22;10147;16.402;102.848;2023-10-13T09:22:28;30.30;99.90
19972;DHT22;10147;16.402;102.848;2023-10-13T09:25:05;30.30;99.90
19972;DHT22;10147;16.402;102.848;2023-10-13T09:27:35;30.30;99.90
19972;DHT22;10147;16.402;102.848;2023-10-13T09:30:07;30.30;99.90
19972;DHT22;10147;16.402;102.848;2023-10-13T09:33:03;30.30;99.90
19972;DHT22;10147;16.402;102.848;2023-10-13T09:35:34;30.40;99.90
19972;DHT22;10147;16.402;102.848;2023-10-13T09:38:06;30.40;99.90
19972;DHT22;10147;16.402;102.848;2023-10-13T09:40:36;30.30;99.90
19972;DHT22;10147;16.402;102.848;2023-10-13T09:43:20;30.30;99.90
19972;DHT22;10147;16.402;102.848;2023-10-13T09:45:55;30.40;99.90
19972;DHT22;10147;16.402;102.848;2023-10-13T09:48:39;30.30;99.90
19972;DHT22;10147;16.402;102.848;2023-10-13T09:51:16;30.30;99.90
19972;DHT22;10147;16.402;102.848;2023-10-13T09:53:59;30.20;99.90
19972;DHT22;10147;16.402;102.848;2023-10-13T09:56:52;30.20;99.90
19972;DHT22;10147;16.402;102.848;2023-10-13T09:59:35;30.20;99.90
19972;DHT22;10147;16.402;102.848;2023-10-13T10:02:09;30.10;99.90
19972;DHT22;10147;16.402;102.848;2023-10-13T10:04:55;30.10;99.90
19972;DHT22;10147;16.402;102.848;2023-10-13T10:07:42;30.20;99.90
19972;DHT22;10147;16.402;102.848;2023-10-13T10:10:22;30.10;99.90
19972;DHT22;10147;16.402;102.848;2023-10-13T10:13:15;29.90;99.90
19972;DHT22;10147;16.402;102.848;2023-10-13T10:15:50;29.80;99.90
19972;DHT22;10147;16.402;102.848;2023-10-13T10:18:22;29.60;99.90
19972;DHT22;10147;16.402;102.848;2023-10-13T10:21:05;29.50;99.90
19972;DHT22;10147;16.402;102.848;2023-10-13T10:23:41;29.30;99.90
19972;DHT22;10147;16.402;102.848;2023-10-13T10:26:15;29.30;99.90
19972;DHT22;10147;16.402;102.848;2023-10-13T10:28:49;29.30;99.90
19972;DHT22;10147;16.402;102.848;2023-10-13T10:31:19;29.30;99.90
19972;DHT22;10147;16.402;102.848;2023-10-13T10:33:50;29.20;99.90
19972;DHT22;10147;16.402;102.848;2023-10-13T10:36:30;29.20;99.90
19972;DHT22;10147;16.402;102.848;2023-10-13T10:39:00;29.10;99.90
19972;DHT22;10147;16.402;102.848;2023-10-13T10:41:33;29.10;99.90
19972;DHT22;10147;16.402;102.848;2023-10-13T10:44:23;29.10;99.90
19972;DHT22;10147;16.402;102.848;2023-10-13T10:47:13;29.00;99.90
19972;DHT22;10147;16.402;102.848;2023-10-13T10:50:04;29.00;99.90
19972;DHT22;10147;16.402;102.848;2023-10-13T10:52:49;29.00;99.90
19972;DHT22;10147;16.402;102.848;2023-10-13T10:55:21;28.90;99.90
19972;DHT22;10147;16.402;102.848;2023-10-13T10:57:59;28.80;99.90
19972;DHT22;10147;16.402;102.848;2023-10-13T11:00:32;28.90;99.90
19972;DHT22;10147;16.402;102.848;2023-10-13T11:03:15;28.90;99.90
19972;DHT22;10147;16.402;102.848;2023-10-13T11:05:47;28.90;99.90
19972;DHT22;10147;16.402;102.848;2023-10-13T11:08:24;28.90;99.90
19972;DHT22;10147;16.402;102.848;2023-10-13T11:11:07;28.80;99.90
19972;DHT22;10147;16.402;102.848;2023-10-13T11:13:44;28.90;99.90
19972;DHT22;10147;16.402;102.848;2023-10-13T11:16:23;28.90;99.90
19972;DHT22;10147;16.402;102.848;2023-10-13T11:19:03;28.80;99.90
19972;DHT22;10147;16.402;102.848;2023-10-13T11:21:34;28.80;99.90
19972;DHT22;10147;16.402;102.848;2023-10-13T11:24:07;28.80;99.90
19972;DHT22;10147;16.402;102.848;2023-10-13T11:26:41;28.80;99.90
19972;DHT22;10147;16.402;102.848;2023-10-13T11:29:31;28.80;99.90
19972;DHT22;10147;16.402;102.848;2023-10-13T11:32:05;28.90;99.90
19972;DHT22;10147;16.402;102.848;2023-10-13T11:34:35;28.80;99.90
19972;DHT22;10147;16.402;102.848;2023-10-13T11:37:11;28.80;99.90
19972;DHT22;10147;16.402;102.848;2023-10-13T11:40:01;28.70;99.90
19972;DHT22;10147;16.402;102.848;2023-10-13T11:42:41;28.70;99.90
19972;DHT22;10147;16.402;102.848;2023-10-13T11:45:16;28.70;99.90
19972;DHT22;10147;16.402;102.848;2023-10-13T11:48:06;28.70;99.90
19972;DHT22;10147;16.402;102.848;2023-10-13T11:50:44;28.50;99.90
19972;DHT22;10147;16.402;102.848;2023-10-13T11:53:16;28.60;99.90
19972;DHT22;10147;16.402;102.848;2023-10-13T11:55:46;28.70;99.90
19972;DHT22;10147;16.402;102.848;2023-10-13T11:58:16;28.60;99.90
19972;DHT22;10147;16.402;102.848;2023-10-13T12:00:47;28.70;99.90
19972;DHT22;10147;16.402;102.848;2023-10-13T12:03:30;28.70;99.90
19972;DHT22;10147;16.402;102.848;2023-10-13T12:06:20;28.80;99.90
19972;DHT22;10147;16.402;102.848;2023-10-13T12:09:11;28.60;99.90
19972;DHT22;10147;16.402;102.848;2023-10-13T12:12:00;28.60;99.90
19972;DHT22;10147;16.402;102.848;2023-10-13T12:14:31;28.70;99.90
19972;DHT22;10147;16.402;102.848;2023-10-13T12:17:27;28.40;99.90
19972;DHT22;10147;16.402;102.848;2023-10-13T12:20:03;28.30;99.90
19972;DHT22;10147;16.402;102.848;2023-10-13T12:22:35;28.20;99.90
19972;DHT22;10147;16.402;102.848;2023-10-13T12:25:09;28.30;99.90
19972;DHT22;10147;16.402;102.848;2023-10-13T12:27:55;28.40;99.90
19972;DHT22;10147;16.402;102.848;2023-10-13T12:30:44;28.40;99.90
19972;DHT22;10147;16.402;102.848;2023-10-13T12:33:25;28.30;99.90
19972;DHT22;10147;16.402;102.848;2023-10-13T12:35:58;28.40;99.90
19972;DHT22;10147;16.402;102.848;2023-10-13T12:38:48;28.40;99.90
19972;DHT22;10147;16.402;102.848;2023-10-13T12:41:40;28.40;99.90
19972;DHT22;10147;16.402;102.848;2023-10-13T12:44:30;28.40;99.90
19972;DHT22;10147;16.402;102.848;2023-10-13T12:47:20;28.40;99.90
19972;DHT22;10147;16.402;102.848;2023-10-13T12:50:11;28.50;99.90
19972;DHT22;10147;16.402;102.848;2023-10-13T12:52:53;28.50;99.90
19972;DHT22;10147;16.402;102.848;2023-10-13T12:55:23;28.40;99.90
19972;DHT22;10147;16.402;102.848;2023-10-13T12:57:55;28.40;99.90
19972;DHT22;10147;16.402;102.848;2023-10-13T13:00:24;28.40;99.90
19972;DHT22;10147;16.402;102.848;2023-10-13T13:02:59;28.40;99.90
19972;DHT22;10147;16.402;102.848;2023-10-13T13:05:29;28.40;99.90
19972;DHT22;10147;16.402;102.848;2023-10-13T13:08:00;28.40;99.90
19972;DHT22;10147;16.402;102.848;2023-10-13T13:10:30;28.30;99.90
19972;DHT22;10147;16.402;102.848;2023-10-13T13:13:07;28.20;99.90
19972;DHT22;10147;16.402;102.848;2023-10-13T13:15:38;28.20;99.90
19972;DHT22;10147;16.402;102.848;2023-10-13T13:18:11;28.10;99.90
19972;DHT22;10147;16.402;102.848;2023-10-13T13:20:41;28.00;99.90
19972;DHT22;10147;16.402;102.848;2023-10-13T13:23:31;28.00;99.90
19972;DHT22;10147;16.402;102.848;2023-10-13T13:26:04;28.10;99.90
19972;DHT22;10147;16.402;102.848;2023-10-13T13:28:45;28.10;99.90
19972;DHT22;10147;16.402;102.848;2023-10-13T13:31:20;28.10;99.90
19972;DHT22;10147;16.402;102.848;2023-10-13T13:34:01;28.10;99.90
19972;DHT22;10147;16.402;102.848;2023-10-13T13:36:34;28.10;99.90
19972;DHT22;10147;16.402;102.848;2023-10-13T13:39:04;28.10;99.90
19972;DHT22;10147;16.402;102.848;2023-10-13T13:41:40;28.10;99.90
19972;DHT22;10147;16.402;102.848;2023-10-13T13:44:13;28.10;99.90
19972;DHT22;10147;16.402;102.848;2023-10-13T13:46:43;28.10;99.90
19972;DHT22;10147;16.402;102.848;2023-10-13T13:49:13;28.10;99.90
19972;DHT22;10147;16.402;102.848;2023-10-13T13:51:57;28.10;99.90
19972;DHT22;10147;16.402;102.848;2023-10-13T13:54:34;28.10;99.90
19972;DHT22;10147;16.402;102.848;2023-10-13T13:57:04;28.00;99.90
19972;DHT22;10147;16.402;102.848;2023-10-13T13:59:35;28.00;99.90
19972;DHT22;10147;16.402;102.848;2023-10-13T14:02:06;28.00;99.90
19972;DHT22;10147;16.402;102.848;2023-10-13T14:04:49;28.00;99.90
19972;DHT22;10147;16.402;102.848;2023-10-13T14:07:22;27.90;99.90
19972;DHT22;10147;16.402;102.848;2023-10-13T14:09:53;27.80;99.90
19972;DHT22;10147;16.402;102.848;2023-10-13T14:12:35;27.80;99.90
19972;DHT22;10147;16.402;102.848;2023-10-13T14:15:13;27.80;99.90
19972;DHT22;10147;16.402;102.848;2023-10-13T14:17:55;27.80;99.90
19972;DHT22;10147;16.402;102.848;2023-10-13T14:20:26;27.80;99.90
19972;DHT22;10147;16.402;102.848;2023-10-13T14:22:59;27.80;99.90
19972;DHT22;10147;16.402;102.848;2023-10-13T14:25:29;27.80;99.90
19972;DHT22;10147;16.402;102.848;2023-10-13T14:28:06;27.80;99.90
19972;DHT22;10147;16.402;102.848;2023-10-13T14:30:36;27.80;99.90
19972;DHT22;10147;16.402;102.848;2023-10-13T14:33:06;27.80;99.90
19972;DHT22;10147;16.402;102.848;2023-10-13T14:35:40;27.70;99.90
19972;DHT22;10147;16.402;102.848;2023-10-13T14:38:10;27.70;99.90
19972;DHT22;10147;16.402;102.848;2023-10-13T14:40:40;27.70;99.90
19972;DHT22;10147;16.402;102.848;2023-10-13T14:43:10;27.70;99.90
19972;DHT22;10147;16.402;102.848;2023-10-13T14:45:41;27.60;99.90
19972;DHT22;10147;16.402;102.848;2023-10-13T14:48:10;27.60;99.90
19972;DHT22;10147;16.402;102.848;2023-10-13T14:50:44;27.50;99.90
19972;DHT22;10147;16.402;102.848;2023-10-13T14:53:14;27.50;99.90
19972;DHT22;10147;16.402;102.848;2023-10-13T14:55:49;27.40;99.90
19972;DHT22;10147;16.402;102.848;2023-10-13T14:58:20;27.50;99.90
19972;DHT22;10147;16.402;102.848;2023-10-13T15:00:56;27.50;99.90
19972;DHT22;10147;16.402;102.848;2023-10-13T15:03:28;27.50;99.90
19972;DHT22;10147;16.402;102.848;2023-10-13T15:06:00;27.40;99.90
19972;DHT22;10147;16.402;102.848;2023-10-13T15:08:30;27.50;99.90
19972;DHT22;10147;16.402;102.848;2023-10-13T15:11:10;27.40;99.90
19972;DHT22;10147;16.402;102.848;2023-10-13T15:13:42;27.30;99.90
19972;DHT22;10147;16.402;102.848;2023-10-13T15:16:16;27.10;99.90
19972;DHT22;10147;16.402;102.848;2023-10-13T15:18:48;27.10;99.90
19972;DHT22;10147;16.402;102.848;2023-10-13T15:21:23;27.00;99.90
19972;DHT22;10147;16.402;102.848;2023-10-13T15:23:56;27.20;99.90
19972;DHT22;10147;16.402;102.848;2023-10-13T15:26:33;27.40;99.90
19972;DHT22;10147;16.402;102.848;2023-10-13T15:29:08;27.30;99.90
19972;DHT22;10147;16.402;102.848;2023-10-13T15:31:44;27.30;99.90
19972;DHT22;10147;16.402;102.848;2023-10-13T15:34:34;27.10;99.90
19972;DHT22;10147;16.402;102.848;2023-10-13T15:37:04;26.90;99.90
19972;DHT22;10147;16.402;102.848;2023-10-13T15:39:34;27.00;99.90
19972;DHT22;10147;16.402;102.848;2023-10-13T15:42:06;27.10;99.90
19972;DHT22;10147;16.402;102.848;2023-10-13T15:44:35;27.20;99.90
19972;DHT22;10147;16.402;102.848;2023-10-13T15:47:06;27.20;99.90
19972;DHT22;10147;16.402;102.848;2023-10-13T15:49:39;27.20;99.90
19972;DHT22;10147;16.402;102.848;2023-10-13T15:52:11;27.30;99.90
19972;DHT22;10147;16.402;102.848;2023-10-13T15:54:43;27.10;99.90
19972;DHT22;10147;16.402;102.848;2023-10-13T15:57:13;26.90;99.90
19972;DHT22;10147;16.402;102.848;2023-10-13T15:59:46;26.70;99.90
19972;DHT22;10147;16.402;102.848;2023-10-13T16:02:16;26.60;99.90
19972;DHT22;10147;16.402;102.848;2023-10-13T16:04:49;26.60;99.90
19972;DHT22;10147;16.402;102.848;2023-10-13T16:07:19;26.60;99.90
19972;DHT22;10147;16.402;102.848;2023-10-13T16:09:51;26.50;99.90